Time;durP1;ratioP1;P1;durP2;ratioP2;P2;SDS_P1;SDS_P2;PMS_P1;PMS_P2;Temp;Humidity;BMP_temperature;BMP_pressure;BME280_temperature;BME280_humidity;BME280_pressure;Samples;Min_cycle;Max_cycle;Signal;HPM_P1;HPM_P2
2021/05/05 00:03:11;;;;;;;1.85;1.00;;;;;;;7.16;44.15;99743.03;8082825;27;20040;-65
2021/05/05 00:07:04;;;;;;;1.63;0.73;;;;;;;7.13;44.49;99739.78;8070436;28;20115;-65
2021/05/05 00:10:57;;;;;;;0.77;0.77;;;;;;;7.11;44.13;99737.28;8070289;28;20028;-65
2021/05/05 00:14:54;;;;;;;0.70;0.65;;;;;;;7.05;44.03;99740.31;8061300;28;20031;-65
2021/05/05 00:18:46;;;;;;;2.35;0.80;;;;;;;7.06;44.36;99739.38;8068550;28;20036;-65
2021/05/05 00:22:38;;;;;;;0.68;0.68;;;;;;;7.04;44.01;99749.09;8069996;28;20082;-65
2021/05/05 00:26:30;;;;;;;2.70;0.80;;;;;;;6.97;44.51;99735.63;8071820;28;20036;-65
2021/05/05 00:30:32;;;;;;;0.90;0.60;;;;;;;6.88;44.02;99733.66;8068604;28;20042;-65
2021/05/05 00:34:24;;;;;;;0.43;0.43;;;;;;;6.85;44.05;99739.06;8069809;28;20032;-65
2021/05/05 00:38:15;;;;;;;1.13;0.88;;;;;;;6.80;44.29;99748.97;8077915;28;20040;-65
2021/05/05 00:42:10;;;;;;;3.85;0.90;;;;;;;6.73;44.31;99744.28;8085187;28;20045;-65
2021/05/05 00:46:03;;;;;;;1.13;0.77;;;;;;;6.72;43.93;99742.66;8074008;28;20044;-65
2021/05/05 00:49:57;;;;;;;1.15;0.68;;;;;;;6.68;44.25;99743.75;8069719;28;20032;-65
2021/05/05 00:53:50;;;;;;;0.60;0.60;;;;;;;6.64;44.10;99750.09;8071907;28;20063;-65
2021/05/05 00:57:42;;;;;;;1.98;0.90;;;;;;;6.62;44.28;99738.94;8075757;28;20032;-65
2021/05/05 01:01:34;;;;;;;3.45;1.60;;;;;;;6.59;44.27;99746.03;8076762;28;20043;-65
2021/05/05 01:05:27;;;;;;;0.63;0.63;;;;;;;6.59;44.12;99743.41;8080374;28;20028;-65
2021/05/05 01:09:19;;;;;;;1.45;0.90;;;;;;;6.60;44.60;99736.41;8078921;28;20035;-65
2021/05/05 01:13:13;;;;;;;1.80;0.88;;;;;;;6.62;44.41;99729.34;8076370;28;20032;-65
2021/05/05 01:17:07;;;;;;;1.63;0.93;;;;;;;6.64;44.65;99722.22;8078202;28;20040;-65
2021/05/05 01:21:01;;;;;;;2.45;1.00;;;;;;;6.67;44.30;99735.09;8081177;28;20369;-65
2021/05/05 01:24:53;;;;;;;2.65;0.98;;;;;;;6.65;44.54;99729.13;8066284;28;20024;-65
2021/05/05 01:28:46;;;;;;;2.45;1.00;;;;;;;6.63;44.31;99743.22;8074788;28;20039;-65
2021/05/05 01:32:40;;;;;;;1.25;0.82;;;;;;;6.56;44.57;99743.63;8071085;28;20066;-65
2021/05/05 01:36:37;;;;;;;1.58;1.20;;;;;;;6.57;44.68;99744.47;8075533;28;20028;-65
2021/05/05 01:40:34;;;;;;;1.67;0.90;;;;;;;6.53;44.97;99730.78;8076007;28;20173;-65
2021/05/05 01:44:37;;;;;;;0.98;0.80;;;;;;;6.49;44.83;99726.72;8080566;28;20447;-65
2021/05/05 01:48:32;;;;;;;5.03;1.02;;;;;;;6.47;44.83;99720.75;8076342;28;20119;-65
2021/05/05 01:52:26;;;;;;;2.60;1.30;;;;;;;6.46;45.13;99729.53;8075763;28;20475;-65
2021/05/05 01:56:18;;;;;;;2.63;1.20;;;;;;;6.42;44.96;99716.81;8075729;28;20404;-65
2021/05/05 02:00:17;;;;;;;1.73;0.73;;;;;;;6.44;45.04;99720.97;8080265;28;20417;-65
2021/05/05 02:04:09;;;;;;;3.13;1.30;;;;;;;6.42;44.99;99720.25;8087131;28;20031;-65
2021/05/05 02:08:31;;;;;;;1.63;0.80;;;;;;;6.35;44.78;99716.34;8067309;28;20050;-65
2021/05/05 02:12:24;;;;;;;1.83;1.20;;;;;;;6.32;44.83;99718.34;8071525;28;20058;-65
2021/05/05 02:16:20;;;;;;;3.60;1.48;;;;;;;6.29;44.90;99716.78;8070930;28;20412;-65
2021/05/05 02:20:21;;;;;;;2.42;1.10;;;;;;;6.26;44.89;99718.75;8079564;28;20031;-65
2021/05/05 02:24:20;;;;;;;3.65;1.30;;;;;;;6.20;44.70;99709.56;8079467;28;20047;-65
2021/05/05 02:28:14;;;;;;;1.00;0.90;;;;;;;6.20;44.95;99717.38;8057503;28;20559;-65
2021/05/05 02:32:26;;;;;;;3.45;1.33;;;;;;;6.15;44.74;99716.84;8073802;28;20525;-65
2021/05/05 02:36:20;;;;;;;1.45;1.00;;;;;;;6.15;44.79;99714.25;8073330;28;20108;-65
2021/05/05 02:40:20;;;;;;;2.55;1.27;;;;;;;6.12;44.91;99717.06;8073315;28;20066;-65
2021/05/05 02:44:16;;;;;;;1.85;1.50;;;;;;;6.08;44.76;99724.25;8083757;28;20709;-65
2021/05/05 02:48:10;;;;;;;2.50;1.20;;;;;;;6.04;44.81;99725.38;8069336;28;20071;-65
2021/05/05 02:52:05;;;;;;;3.33;1.35;;;;;;;5.96;45.06;99721.59;8070723;28;20256;-65
2021/05/05 02:56:01;;;;;;;1.40;1.27;;;;;;;5.94;45.08;99726.06;8076288;28;20093;-65
2021/05/05 02:59:53;;;;;;;2.65;1.08;;;;;;;5.87;45.00;99736.06;8054106;28;20480;-65
2021/05/05 03:03:46;;;;;;;1.38;0.98;;;;;;;5.82;45.23;99726.84;8070646;28;20736;-65
2021/05/05 03:07:40;;;;;;;3.88;1.15;;;;;;;5.77;45.22;99726.31;8071832;28;20032;-65
2021/05/05 03:11:35;;;;;;;3.05;1.08;;;;;;;5.72;45.20;99717.97;8072032;28;20385;-66
2021/05/05 03:15:27;;;;;;;4.10;1.23;;;;;;;5.71;45.26;99726.72;8070991;28;20058;-65
2021/05/05 03:19:23;;;;;;;4.28;1.30;;;;;;;5.67;45.27;99731.28;8072013;28;20040;-65
2021/05/05 03:23:15;;;;;;;2.70;1.25;;;;;;;5.67;45.32;99725.25;8063658;28;20107;-65
2021/05/05 03:27:11;;;;;;;2.58;1.33;;;;;;;5.64;45.52;99724.50;8068467;28;20075;-65
2021/05/05 03:31:04;;;;;;;1.10;1.00;;;;;;;5.68;45.49;99732.97;8069059;28;20097;-65
2021/05/05 03:34:56;;;;;;;1.95;1.25;;;;;;;5.67;45.44;99731.28;8070881;28;20040;-66
2021/05/05 03:38:49;;;;;;;1.75;0.90;;;;;;;5.62;45.19;99731.59;8074460;28;20028;-65
2021/05/05 03:42:41;;;;;;;1.65;1.20;;;;;;;5.63;45.50;99741.09;8074393;28;20035;-65
2021/05/05 03:46:32;;;;;;;2.63;1.15;;;;;;;5.61;45.48;99729.06;8068594;28;20047;-65
2021/05/05 03:50:26;;;;;;;1.52;1.25;;;;;;;5.55;45.47;99732.91;8070539;28;20109;-66
2021/05/05 03:54:18;;;;;;;2.97;1.20;;;;;;;5.56;45.52;99738.94;8071453;28;20077;-65
2021/05/05 03:58:10;;;;;;;4.00;1.45;;;;;;;5.55;45.45;99747.69;8072168;28;20035;-65
2021/05/05 04:02:02;;;;;;;3.63;1.52;;;;;;;5.52;45.71;99751.31;8067443;28;20044;-65
2021/05/05 04:05:53;;;;;;;3.42;1.63;;;;;;;5.49;45.50;99754.13;8060300;28;20036;-65
2021/05/05 04:09:48;;;;;;;2.47;1.23;;;;;;;5.46;45.80;99748.28;8075620;28;20028;-65
2021/05/05 04:13:40;;;;;;;2.00;1.40;;;;;;;5.47;45.59;99755.16;8068034;28;20036;-65
2021/05/05 04:17:31;;;;;;;2.42;1.77;;;;;;;5.47;45.87;99762.97;8067418;28;20042;-65
2021/05/05 04:21:23;;;;;;;3.97;1.45;;;;;;;5.48;45.92;99755.06;8079123;28;20089;-65
2021/05/05 04:25:17;;;;;;;3.20;1.60;;;;;;;5.49;45.82;99758.50;8081546;28;20047;-65
2021/05/05 04:29:09;;;;;;;2.65;1.33;;;;;;;5.55;46.02;99778.97;8076929;28;20483;-65
2021/05/05 04:33:01;;;;;;;4.50;1.55;;;;;;;5.55;46.27;99779.81;8069813;28;20040;-65
2021/05/05 04:36:54;;;;;;;2.78;1.48;;;;;;;5.56;46.13;99780.63;8075642;28;20028;-65
2021/05/05 04:40:45;;;;;;;1.98;1.48;;;;;;;5.59;46.24;99775.22;8074976;28;20056;-65
2021/05/05 04:44:37;;;;;;;2.70;1.35;;;;;;;5.61;46.34;99789.81;8075946;28;20076;-65
2021/05/05 04:48:29;;;;;;;5.05;1.65;;;;;;;5.70;46.45;99784.97;8081556;28;20579;-65
2021/05/05 04:52:21;;;;;;;2.70;1.30;;;;;;;5.75;46.35;99799.41;8091382;28;20035;-67
2021/05/05 04:56:13;;;;;;;4.00;1.58;;;;;;;5.78;46.32;99793.97;8089540;28;20112;-67
2021/05/05 05:00:10;;;;;;;2.17;1.63;;;;;;;5.82;46.50;99798.06;8087863;28;20035;-67
2021/05/05 05:04:02;;;;;;;2.40;1.52;;;;;;;5.92;46.45;99804.38;8082506;28;20684;-67
2021/05/05 05:07:54;;;;;;;4.30;1.60;;;;;;;5.99;46.23;99805.66;8084645;28;20108;-65
2021/05/05 05:11:47;;;;;;;4.15;1.83;;;;;;;6.05;46.58;99814.88;8075319;28;20036;-65
2021/05/05 05:15:39;;;;;;;5.43;1.55;;;;;;;6.10;46.36;99816.22;8073367;28;20047;-65
2021/05/05 05:19:35;;;;;;;2.80;1.33;;;;;;;6.15;46.45;99810.72;8074030;28;20035;-65
2021/05/05 05:23:28;;;;;;;4.22;2.35;;;;;;;6.21;46.43;99818.16;8074318;28;20055;-65
2021/05/05 05:27:19;;;;;;;1.92;1.45;;;;;;;6.25;46.94;99818.78;8074792;28;20047;-65
2021/05/05 05:31:12;;;;;;;3.15;1.70;;;;;;;6.33;46.76;99830.41;8075065;28;20075;-65
2021/05/05 05:35:08;;;;;;;5.07;1.60;;;;;;;6.40;46.67;99829.06;8079730;28;20035;-65
2021/05/05 05:38:59;;;;;;;3.78;2.38;;;;;;;6.51;46.66;99833.59;8087973;28;20617;-65
2021/05/05 05:42:54;;;;;;;2.90;1.33;;;;;;;6.56;46.78;99826.28;8085999;28;20058;-65
2021/05/05 05:46:46;;;;;;;2.58;1.42;;;;;;;6.67;46.70;99829.03;8074666;28;20035;-65
2021/05/05 05:50:38;;;;;;;3.22;1.40;;;;;;;6.71;46.61;99827.91;8082969;28;20115;-65
2021/05/05 05:54:30;;;;;;;2.60;1.40;;;;;;;6.73;46.80;99830.41;8078328;28;20036;-65
2021/05/05 05:58:22;;;;;;;4.55;2.22;;;;;;;6.76;46.96;99828.44;8072853;28;20028;-64
2021/05/05 06:02:17;;;;;;;2.55;1.60;;;;;;;6.89;46.84;99833.69;8072025;28;20032;-65
2021/05/05 06:06:09;;;;;;;3.50;1.50;;;;;;;7.28;47.25;99840.59;8073686;28;20040;-65
2021/05/05 06:10:05;;;;;;;5.80;2.30;;;;;;;7.74;47.40;99840.84;8075329;28;20054;-65
2021/05/05 06:13:56;;;;;;;4.10;2.00;;;;;;;8.18;47.40;99842.94;8073242;28;20024;-65
2021/05/05 06:17:48;;;;;;;4.28;1.92;;;;;;;8.59;47.10;99847.78;8075762;28;20093;-65
2021/05/05 06:21:40;;;;;;;5.43;1.80;;;;;;;8.69;46.74;99848.78;8084389;28;20103;-65
2021/05/05 06:25:32;;;;;;;7.65;1.98;;;;;;;8.62;46.64;99850.19;8076427;28;20055;-66
2021/05/05 06:29:26;;;;;;;2.60;1.50;;;;;;;8.43;46.29;99853.31;8066572;28;20047;-65
2021/05/05 06:33:18;;;;;;;2.35;1.52;;;;;;;8.24;46.29;99853.81;8069094;28;20374;-66
2021/05/05 06:37:09;;;;;;;4.03;1.67;;;;;;;8.08;46.29;99852.38;8069722;28;20063;-66
2021/05/05 06:41:04;;;;;;;7.20;1.85;;;;;;;7.92;46.71;99868.31;8061688;28;20418;-65
2021/05/05 06:44:58;;;;;;;10.07;1.88;;;;;;;7.74;46.73;99869.63;8073054;28;20024;-65
2021/05/05 06:48:53;;;;;;;6.47;1.77;;;;;;;7.54;46.46;99878.00;8080014;28;20051;-65
2021/05/05 06:52:45;;;;;;;2.88;1.45;;;;;;;7.34;46.39;99901.09;8074338;28;20032;-65
2021/05/05 06:56:36;;;;;;;3.45;1.30;;;;;;;7.16;46.59;99899.75;8079163;28;20043;-66
2021/05/05 07:00:28;;;;;;;2.75;1.38;;;;;;;7.04;46.66;99897.94;8062391;28;20439;-66
2021/05/05 07:04:19;;;;;;;1.52;1.38;;;;;;;6.94;46.35;99910.78;8083180;28;20032;-65
2021/05/05 07:08:12;;;;;;;4.22;1.38;;;;;;;6.86;46.48;99905.22;8084898;28;20047;-66
2021/05/05 07:12:07;;;;;;;5.85;1.38;;;;;;;6.79;46.64;99900.50;8081231;28;20414;-66
2021/05/05 07:16:01;;;;;;;2.72;1.38;;;;;;;6.79;46.76;99903.13;8066953;28;20035;-66
2021/05/05 07:19:54;;;;;;;2.15;1.58;;;;;;;6.77;47.09;99908.44;8066543;28;20438;-66
2021/05/05 07:23:45;;;;;;;3.47;1.08;;;;;;;6.75;46.69;99905.09;8069319;28;20400;-66
2021/05/05 07:27:38;;;;;;;2.58;1.00;;;;;;;6.64;46.85;99914.50;8069267;28;20023;-65
2021/05/05 07:31:29;;;;;;;1.13;0.85;;;;;;;6.63;46.86;99926.75;8063579;28;20509;-66
2021/05/05 07:35:22;;;;;;;2.40;1.25;;;;;;;6.59;47.15;99941.72;8069458;28;20655;-65
2021/05/05 07:47:28;;;;;;;0.60;0.60;;;;;;;6.55;46.95;99950.69;8088471;27;20563;-66
2021/05/05 07:51:20;;;;;;;0.68;0.60;;;;;;;6.67;46.96;99953.47;8082711;28;20554;-65
2021/05/05 07:55:12;;;;;;;0.70;0.70;;;;;;;6.83;47.28;99965.47;8080918;28;20479;-65
2021/05/05 07:59:04;;;;;;;0.80;0.73;;;;;;;6.94;47.14;99972.59;8081856;28;20107;-65
2021/05/05 08:02:56;;;;;;;1.40;0.82;;;;;;;7.20;47.41;99974.34;8072090;28;20072;-65
2021/05/05 08:06:50;;;;;;;1.30;0.90;;;;;;;7.54;47.00;99975.56;8068607;28;20504;-66
2021/05/05 08:10:42;;;;;;;1.48;0.90;;;;;;;7.95;46.80;99976.16;8064755;28;20036;-66
2021/05/05 08:14:34;;;;;;;1.17;0.90;;;;;;;8.95;46.97;99976.03;8076801;28;20032;-66
2021/05/05 08:18:27;;;;;;;2.28;1.08;;;;;;;9.92;46.31;99981.75;8072148;28;20096;-65
2021/05/05 08:22:20;;;;;;;4.13;1.08;;;;;;;10.46;45.94;99989.72;8073280;28;20044;-66
2021/05/05 08:26:15;;;;;;;2.25;0.95;;;;;;;11.06;45.90;99985.78;8079211;28;20048;-66
2021/05/05 08:30:08;;;;;;;3.72;1.23;;;;;;;11.34;45.52;99979.06;8071740;28;20039;-66
2021/05/05 08:34:00;;;;;;;4.63;1.40;;;;;;;11.73;45.17;99985.47;8072989;28;20108;-66
2021/05/05 08:37:55;;;;;;;2.42;1.30;;;;;;;12.28;45.36;99986.81;8062451;28;20058;-66
2021/05/05 08:41:47;;;;;;;2.42;1.17;;;;;;;13.55;44.81;99988.53;8065274;28;20832;-66
2021/05/05 08:45:44;;;;;;;4.00;1.55;;;;;;;14.22;43.79;99988.31;8070829;28;20043;-66
2021/05/05 08:49:36;;;;;;;1.58;1.05;;;;;;;14.60;43.83;99997.88;8063825;28;20070;-67
2021/05/05 08:53:28;;;;;;;4.95;1.58;;;;;;;14.51;43.60;99998.75;8071027;28;20097;-66
2021/05/05 08:57:21;;;;;;;2.50;1.13;;;;;;;14.34;43.42;99999.50;8076468;28;20158;-66
2021/05/05 09:01:13;;;;;;;2.95;1.42;;;;;;;14.20;43.14;99994.72;8069991;28;20127;-66
2021/05/05 09:05:10;;;;;;;3.53;1.40;;;;;;;13.89;42.93;100002.88;8074204;28;20059;-66
2021/05/05 09:09:01;;;;;;;1.70;1.30;;;;;;;13.51;42.91;100017.94;8073220;28;20066;-66
2021/05/05 09:12:54;;;;;;;1.55;1.10;;;;;;;13.22;42.53;100023.22;8039911;28;20044;-67
2021/05/05 09:16:46;;;;;;;2.13;1.20;;;;;;;13.02;42.77;100030.28;8061453;28;20044;-66
2021/05/05 09:20:38;;;;;;;2.72;1.10;;;;;;;12.80;42.59;100030.53;8064953;28;20515;-66
2021/05/05 09:24:33;;;;;;;3.17;1.45;;;;;;;12.65;42.59;100030.06;8075885;28;20036;-66
2021/05/05 09:28:26;;;;;;;5.00;1.55;;;;;;;12.56;42.40;100041.38;8081070;28;20146;-66
2021/05/05 09:32:22;;;;;;;5.53;1.98;;;;;;;12.38;42.15;100045.63;8084690;28;20067;-66
2021/05/05 09:36:22;;;;;;;4.40;1.25;;;;;;;12.16;42.16;100040.53;8082062;28;20038;-66
2021/05/05 09:40:14;;;;;;;1.65;1.15;;;;;;;11.99;41.94;100044.59;8080311;28;20036;-66
2021/05/05 09:44:07;;;;;;;3.40;1.33;;;;;;;11.83;42.15;100067.91;8080521;28;20038;-66
2021/05/05 09:48:00;;;;;;;3.67;1.25;;;;;;;11.70;41.88;100062.00;8073076;28;20043;-66
2021/05/05 09:52:08;;;;;;;3.15;1.20;;;;;;;11.59;41.78;100062.91;8080232;28;20365;-66
2021/05/05 09:55:59;;;;;;;3.57;1.73;;;;;;;11.50;42.14;100064.47;8079176;28;20040;-66
2021/05/05 10:00:12;;;;;;;3.40;1.25;;;;;;;11.42;41.81;100072.16;8078479;28;20070;-66
2021/05/05 10:04:04;;;;;;;5.63;1.42;;;;;;;11.43;41.72;100071.19;8074268;28;20793;-66
2021/05/05 10:08:06;;;;;;;3.55;1.10;;;;;;;11.37;41.57;100084.00;8079248;28;20036;-66
2021/05/05 10:12:07;;;;;;;4.10;1.45;;;;;;;11.22;41.59;100091.34;8070253;28;20035;-66
2021/05/05 10:16:00;;;;;;;4.13;1.23;;;;;;;11.10;41.43;100089.72;8078805;28;20044;-66
2021/05/05 10:19:52;;;;;;;3.25;1.30;;;;;;;11.06;41.36;100109.31;8082641;28;20035;-66
2021/05/05 10:23:45;;;;;;;4.70;1.42;;;;;;;11.00;41.29;100113.25;8080097;28;20092;-66
2021/05/05 10:27:40;;;;;;;2.45;1.55;;;;;;;10.93;41.32;100125.22;8078335;28;20056;-66
2021/05/05 10:31:35;;;;;;;2.95;1.30;;;;;;;10.94;41.51;100121.63;8075757;28;20036;-66
2021/05/05 10:35:27;;;;;;;2.72;1.55;;;;;;;11.02;41.59;100121.03;8068635;28;20039;-66
2021/05/05 10:39:20;;;;;;;3.13;1.23;;;;;;;11.10;41.60;100121.25;8068500;28;20035;-67
2021/05/05 10:43:12;;;;;;;4.55;1.48;;;;;;;11.09;41.46;100117.78;8070528;28;20027;-66
2021/05/05 10:47:15;;;;;;;2.20;1.45;;;;;;;11.10;41.36;100137.03;8070467;28;20040;-66
2021/05/05 10:51:12;;;;;;;7.70;1.50;;;;;;;11.12;41.36;100143.81;8075900;28;20412;-66
2021/05/05 10:55:28;;;;;;;3.72;1.23;;;;;;;11.12;41.12;100159.59;8074835;28;20028;-66
2021/05/05 10:59:25;;;;;;;3.80;1.30;;;;;;;11.19;41.14;100177.53;8068383;28;20519;-66
2021/05/05 11:03:52;;;;;;;5.47;1.60;;;;;;;11.20;41.04;100182.63;8050634;28;20091;-66
2021/05/05 11:07:47;;;;;;;2.83;1.23;;;;;;;11.15;40.70;100172.47;8063168;28;20020;-66
2021/05/05 11:11:48;;;;;;;2.40;1.50;;;;;;;11.08;40.69;100171.31;8067233;28;20119;-66
2021/05/05 11:15:44;;;;;;;2.80;1.20;;;;;;;11.10;40.73;100173.81;8063752;28;20032;-66
2021/05/05 11:19:39;;;;;;;4.53;1.38;;;;;;;11.11;40.57;100186.00;8075991;28;20039;-66
2021/05/05 11:23:42;;;;;;;3.13;1.30;;;;;;;11.07;40.82;100211.69;8079178;28;20043;-66
2021/05/05 11:27:49;;;;;;;2.10;1.25;;;;;;;10.96;40.77;100210.84;8080331;28;20051;-67
2021/05/05 11:31:46;;;;;;;2.78;0.88;;;;;;;10.90;40.69;100209.53;8076534;28;20117;-66
2021/05/05 11:35:40;;;;;;;4.30;1.10;;;;;;;10.87;40.88;100212.41;8077408;28;20058;-66
2021/05/05 11:39:41;;;;;;;1.75;1.30;;;;;;;10.86;40.97;100218.59;8078164;28;20447;-66
2021/05/05 11:43:32;;;;;;;1.88;1.20;;;;;;;10.89;41.40;100209.66;8078433;28;20027;-66
2021/05/05 11:47:32;;;;;;;2.00;1.20;;;;;;;10.96;41.23;100209.06;8076467;28;20048;-65
2021/05/05 11:51:26;;;;;;;1.90;1.08;;;;;;;11.00;41.19;100220.16;8077437;28;20036;-66
2021/05/05 11:55:27;;;;;;;5.38;1.50;;;;;;;11.04;41.03;100225.06;8077296;28;20059;-66
2021/05/05 11:59:25;;;;;;;2.78;1.70;;;;;;;11.13;41.22;100242.75;8070629;28;20046;-66
2021/05/05 12:03:19;;;;;;;2.90;1.20;;;;;;;11.20;40.82;100277.28;8071935;28;20126;-65
2021/05/05 12:07:22;;;;;;;1.58;0.93;;;;;;;11.15;40.65;100290.78;8075230;28;20548;-65
2021/05/05 12:11:20;;;;;;;1.17;0.90;;;;;;;10.97;40.58;100307.97;8068916;28;20051;-65
2021/05/05 12:15:12;;;;;;;0.95;0.60;;;;;;;10.76;40.73;100330.63;8075858;28;20055;-66
2021/05/05 12:19:11;;;;;;;0.80;0.63;;;;;;;10.54;40.37;100354.19;8076298;28;20511;-65
2021/05/05 12:23:03;;;;;;;1.02;0.60;;;;;;;10.27;40.70;100354.41;8074648;28;20031;-66
2021/05/05 12:27:07;;;;;;;1.92;0.70;;;;;;;9.99;41.01;100350.28;8077856;28;20051;-65
2021/05/05 12:30:59;;;;;;;0.55;0.55;;;;;;;9.82;41.26;100328.84;8074062;28;20035;-65
2021/05/05 12:34:57;;;;;;;0.88;0.70;;;;;;;9.81;41.75;100341.13;8071307;28;20134;-66
2021/05/05 12:38:52;;;;;;;2.03;0.77;;;;;;;9.98;42.21;100342.53;8075011;28;20040;-66
2021/05/05 12:42:45;;;;;;;1.70;0.80;;;;;;;10.14;42.38;100335.25;8063674;28;20097;-65
2021/05/05 12:46:56;;;;;;;1.65;0.77;;;;;;;10.33;42.45;100337.34;8066696;28;20084;-65
2021/05/05 12:50:48;;;;;;;4.90;1.60;;;;;;;10.48;42.61;100325.75;8074961;28;20031;-65
2021/05/05 12:54:44;;;;;;;3.78;1.00;;;;;;;10.63;42.41;100329.88;8066851;28;20481;-66
2021/05/05 12:58:42;;;;;;;2.72;1.13;;;;;;;10.73;42.38;100327.41;8077725;28;20135;-65
2021/05/05 13:02:35;;;;;;;3.47;1.70;;;;;;;10.79;42.21;100338.28;8074185;28;20128;-65
2021/05/05 13:06:46;;;;;;;5.30;1.63;;;;;;;10.88;42.21;100327.06;8078910;28;20032;-65
2021/05/05 13:10:44;;;;;;;2.90;1.55;;;;;;;10.97;42.06;100368.44;8073310;28;20031;-65
2021/05/05 13:14:56;;;;;;;;;;;;;;;10.81;42.00;100381.06;8080812;28;20055;-65
2021/05/05 13:35:53;;;;;;;2.28;1.17;;;;;;;10.82;42.76;100374.81;8068868;28;20155;-65
2021/05/05 13:39:46;;;;;;;2.72;1.13;;;;;;;10.95;42.64;100382.63;8072805;28;20039;-65
2021/05/05 13:43:48;;;;;;;4.93;1.65;;;;;;;11.02;42.55;100400.47;8068661;28;20787;-66
2021/05/05 13:47:46;;;;;;;1.55;0.90;;;;;;;11.01;42.21;100417.19;8072514;28;20081;-65
2021/05/05 13:51:41;;;;;;;6.18;1.77;;;;;;;10.88;42.12;100418.19;8076205;28;20035;-66
2021/05/05 13:55:33;;;;;;;2.20;0.90;;;;;;;10.75;42.03;100420.91;8068843;28;20077;-66
2021/05/05 13:59:25;;;;;;;0.88;0.80;;;;;;;10.68;41.99;100417.06;8079866;28;20035;-65
2021/05/05 14:03:16;;;;;;;3.08;1.20;;;;;;;10.73;41.99;100417.56;8076504;28;20127;-66
2021/05/05 14:07:11;;;;;;;3.10;1.30;;;;;;;10.82;42.38;100414.22;8073251;28;20122;-66
2021/05/05 14:11:03;;;;;;;2.97;1.23;;;;;;;10.85;42.20;100418.44;8066189;28;20585;-65
2021/05/05 14:14:56;;;;;;;1.48;1.08;;;;;;;10.85;42.33;100406.16;8070280;28;20027;-65
2021/05/05 14:18:48;;;;;;;3.83;1.30;;;;;;;10.79;42.16;100403.97;8074721;28;20092;-66
2021/05/05 14:22:41;;;;;;;3.97;1.55;;;;;;;10.75;42.01;100402.50;8073839;28;20048;-66
2021/05/05 14:26:36;;;;;;;3.45;1.27;;;;;;;10.69;41.95;100411.66;8073142;28;20036;-66
2021/05/05 14:30:31;;;;;;;4.70;1.23;;;;;;;10.71;41.63;100419.44;8076363;28;20090;-65
2021/05/05 14:34:27;;;;;;;2.53;1.35;;;;;;;10.74;41.75;100419.22;8081405;28;20051;-65
2021/05/05 14:38:20;;;;;;;3.03;1.08;;;;;;;10.77;41.55;100416.38;8071075;28;20442;-66
2021/05/05 14:42:17;;;;;;;1.98;1.25;;;;;;;10.84;41.00;100414.13;8073284;28;20407;-65
2021/05/05 14:50:09;;;;;;;2.03;1.10;;;;;;;10.80;41.02;100421.41;8072866;28;20055;-65
2021/05/05 14:54:01;;;;;;;3.17;1.45;;;;;;;10.82;40.87;100430.00;8076494;28;20082;-65
2021/05/05 14:58:00;;;;;;;1.75;0.90;;;;;;;10.83;40.76;100438.72;8076812;28;20085;-65
2021/05/05 15:01:52;;;;;;;2.13;1.00;;;;;;;10.77;40.72;100434.78;8071171;28;20044;-66
2021/05/05 15:05:45;;;;;;;1.70;0.93;;;;;;;10.73;40.67;100443.84;8074954;28;20556;-66
2021/05/05 15:09:58;;;;;;;1.63;1.00;;;;;;;10.76;40.40;100432.25;8069942;28;20040;-65
2021/05/05 15:35:01;;;;;;;1.67;0.90;;;;;;;10.46;40.01;100430.03;8069741;28;20042;-65
2021/05/05 15:38:55;;;;;;;3.53;0.98;;;;;;;10.47;40.00;100437.81;8067881;28;20074;-65
2021/05/05 15:42:48;;;;;;;;;;;;;;;10.40;40.31;100428.72;8065417;28;20491;-65
2021/05/05 15:50:50;;;;;;;1.40;1.00;;;;;;;10.51;39.56;100441.09;8070470;28;20079;-66
2021/05/05 15:54:43;;;;;;;2.13;1.30;;;;;;;10.54;39.41;100443.47;8066642;28;20539;-66
2021/05/05 15:58:39;;;;;;;4.28;1.25;;;;;;;10.52;39.42;100451.50;8074464;28;20035;-66
2021/05/05 16:02:51;;;;;;;1.40;1.02;;;;;;;10.46;39.26;100433.50;8068947;28;20048;-66
2021/05/05 16:19:09;;;;;;;1.63;1.00;;;;;;;10.38;38.78;100442.88;8066177;28;22156;-65
2021/05/05 16:23:11;;;;;;;2.47;1.55;;;;;;;10.39;38.90;100444.56;8075218;28;20036;-66
2021/05/05 16:52:24;;;;;;;2.25;1.17;;;;;;;10.13;38.36;100454.28;8083204;28;20194;-65
2021/05/05 16:56:28;;;;;;;2.58;1.27;;;;;;;10.11;38.30;100459.66;8076137;28;20047;-65
2021/05/05 17:05:02;;;;;;;4.20;1.40;;;;;;;10.02;38.35;100457.69;8027643;28;20043;-66
2021/05/05 17:12:48;;;;;;;3.97;1.50;;;;;;;10.05;38.21;100457.47;8078000;28;20024;-65
2021/05/05 17:16:43;;;;;;;3.05;1.38;;;;;;;10.05;38.19;100467.13;8079387;28;20122;-68
2021/05/05 17:20:43;;;;;;;3.67;1.17;;;;;;;9.99;37.96;100460.50;8066022;28;20047;-69
2021/05/05 17:25:02;;;;;;;4.93;1.30;;;;;;;9.96;37.94;100452.00;8080683;28;20038;-70
2021/05/05 18:10:17;;;;;;;1.10;0.93;;;;;;;9.56;37.37;100475.75;8068583;28;20122;-70
2021/05/05 18:18:28;;;;;;;3.47;1.25;;;;;;;9.48;37.18;100480.69;8072942;28;20047;-69
2021/05/05 18:22:27;;;;;;;1.80;1.02;;;;;;;9.50;37.35;100491.88;8069277;28;20036;-69
2021/05/05 18:30:14;;;;;;;5.40;1.30;;;;;;;9.43;37.36;100500.28;8070038;28;20299;-70
2021/05/05 18:34:08;;;;;;;3.55;0.90;;;;;;;9.39;37.03;100499.66;8067516;28;20078;-72
2021/05/05 18:38:06;;;;;;;4.90;1.50;;;;;;;9.36;37.14;100491.16;8070591;28;20048;-70
2021/05/05 18:42:08;;;;;;;2.25;1.30;;;;;;;9.33;37.32;100497.38;8054475;28;20062;-69
2021/05/05 18:59:11;;;;;;;8.02;1.50;;;;;;;9.19;37.32;100502.72;8070609;28;20063;-68
2021/05/05 19:06:47;;;;;;;2.65;1.27;;;;;;;9.14;37.23;100510.88;8067612;28;20036;-69
2021/05/05 19:07:32;;;;;;;2.53;1.20;;;;;;;9.10;37.24;100519.88;8069279;28;20043;-69
2021/05/05 19:15:56;;;;;;;3.60;1.88;;;;;;;8.98;37.49;100510.22;8070787;28;20039;-68
2021/05/05 19:37:27;;;;;;;3.88;1.75;;;;;;;8.53;38.15;100529.72;8070515;28;20036;-69
2021/05/05 20:32:45;;;;;;;2.97;1.75;;;;;;;7.49;38.93;100552.59;7974317;28;20045;-67
2021/05/05 21:08:56;;;;;;;1.80;1.40;;;;;;;6.99;39.50;100539.81;7977989;28;20506;-67
2021/05/05 21:21:40;;;;;;;3.65;1.42;;;;;;;6.98;39.51;100527.69;7980085;28;20025;-67
2021/05/05 22:00:04;;;;;;;3.50;1.63;;;;;;;6.79;40.75;100577.50;7976810;28;20087;-67
